Friday, January 19, 2018, 10:40 AM EST
Back to Local

KAVP, Wilkes-barre/scranton International

Location: Pittston, PA, United States Lat: 41.333
Local Time: 10:40 AM EST (15:40 GMT) Lon: -75.733
Time Zone: US/Eastern Elev: 961 ft

Show me the last for .
Show Coded

Time T Td Feel RH Dir Speed Gust Alt SLP Vis Weather Sky Remarks
2018-01-19 09:54 25 13 16 59 220° 9 - 30.04 30.07 8 CLR None
2018-01-19 08:54 21 11 12 64 250° 7 - 30.03 30.07 8 CLR None
2018-01-19 07:54 20 11 11 67 220° 7 - 30.02 30.06 8 CLR None
2018-01-19 06:54 17 10 9 73 220° 6 - 30.01 30.05 8 CLR 6-hr Min Temp (7am): 12.9°F
6-hr Max Temp (7am): 19.9°F
2018-01-19 05:54 15 9 - 76 - Calm - 30.01 30.05 8 CLR None
2018-01-19 04:54 13 9 7 83 220° 3 - 30.00 30.04 7 CLR None
2018-01-19 03:54 20 11 11 67 210° 7 - 30.00 30.03 9 CLR None
2018-01-19 02:54 15 10 8 79 180° 5 - 30.01 30.04 7 CLR None
2018-01-19 01:54 18 11 13 73 210° 3 - 29.98 30.02 8 CLR None
2018-01-19 00:54 20 11 15 67 240° 3 - 29.98 30.02 8 CLR 6-hr Min Temp (1am): 12.9°F
6-hr Max Temp (1am): 21.9°F
2018-01-18 23:54 18 10 10 70 210° 6 - 30.00 30.04 8 CLR 24-hr Min Temp (12am): 5.0°F
24-hr Max Temp (12am): 25.0°F
2018-01-18 22:54 15 10 9 79 200° 3 - 30.02 30.06 7 CLR None
2018-01-18 21:54 17 9 12 69 200° 3 - 30.03 30.07 7 CLR None
2018-01-18 20:54 16 9 10 73 200° 3 - 30.02 30.07 8 CLR None
2018-01-18 19:54 18 10 - 70 - Calm - 30.01 30.06 8 CLR None
2018-01-18 18:54 22 10 16 59 300° 5 - 30.00 30.04 9 CLR 6-hr Min Temp (7pm): 19.9°F
6-hr Max Temp (7pm): 25.0°F
2018-01-18 17:54 22 10 14 59 310° 6 - 29.99 30.03 9 CLR None
2018-01-18 16:54 23 10 15 56 310° 7 - 29.97 30.02 8 CLR None
2018-01-18 15:54 24 10 13 54 330° 12 - 29.96 30.00 8 CLR None
2018-01-18 14:54 24 9 13 51 340° 12 - 29.96 30.00 9 CLR None
2018-01-18 13:54 22 9 10 56 340° 12 - 29.98 30.02 9 CLR None
2018-01-18 12:54 20 7 11 56 310° 7 - 30.01 30.05 9 CLR 6-hr Min Temp (1pm): 5.0°F
6-hr Max Temp (1pm): 19.9°F
2018-01-18 11:54 18 7 10 61 250° 6 - 30.04 30.09 8 CLR None
2018-01-18 10:54 15 7 4 69 250° 8 - 30.06 30.11 7 CLR None

Support USWX by starting your Amazon purchase here.